createdAt,value
2018-02-19T00:00:18.548Z,0
2018-02-19T00:00:59.084Z,0
2018-02-19T00:01:39.592Z,0
2018-02-19T00:02:20.127Z,0
2018-02-19T00:03:00.674Z,0
2018-02-19T00:03:41.182Z,0
2018-02-19T00:04:21.671Z,0
2018-02-19T00:05:02.250Z,0
2018-02-19T00:05:42.747Z,0
2018-02-19T00:06:23.306Z,0
2018-02-19T00:07:03.792Z,0
2018-02-19T00:07:44.353Z,0
2018-02-19T00:08:24.867Z,0
2018-02-19T00:09:05.409Z,0
2018-02-19T00:09:45.930Z,0
2018-02-19T00:10:26.467Z,0
2018-02-19T00:11:07.022Z,0
2018-02-19T00:11:47.597Z,0
2018-02-19T00:12:28.092Z,0
2018-02-19T00:13:08.672Z,0
2018-02-19T00:13:49.207Z,0
2018-02-19T00:14:29.730Z,0
2018-02-19T00:15:10.230Z,0
2018-02-19T00:15:50.764Z,0
2018-02-19T00:16:31.320Z,0
2018-02-19T00:17:11.855Z,0
2018-02-19T00:17:52.356Z,0
2018-02-19T00:18:32.920Z,0
2018-02-19T00:19:13.461Z,0
2018-02-19T00:19:53.935Z,0
2018-02-19T00:20:34.476Z,0
2018-02-19T00:21:15.025Z,0
2018-02-19T00:21:55.534Z,0
2018-02-19T00:22:36.098Z,0
2018-02-19T00:23:16.674Z,0
2018-02-19T00:23:57.158Z,0
2018-02-19T00:24:37.667Z,0
2018-02-19T00:25:18.217Z,0
2018-02-19T00:25:58.724Z,0
2018-02-19T00:26:39.257Z,0
2018-02-19T00:27:19.777Z,0
2018-02-19T00:28:00.291Z,0
2018-02-19T00:28:40.825Z,0
2018-02-19T00:29:21.307Z,0
2018-02-19T00:30:01.885Z,0
2018-02-19T00:30:42.374Z,0
2018-02-19T00:31:22.899Z,0
2018-02-19T00:32:03.435Z,0
2018-02-19T00:32:43.940Z,0
2018-02-19T00:33:24.492Z,0
2018-02-19T00:34:04.984Z,0
2018-02-19T00:34:45.534Z,0
2018-02-19T00:35:26.067Z,0
2018-02-19T00:36:06.562Z,0
2018-02-19T00:36:47.111Z,0
2018-02-19T00:37:27.618Z,0
2018-02-19T00:38:08.132Z,0
2018-02-19T00:38:48.695Z,0
2018-02-19T00:39:29.199Z,0
2018-02-19T00:40:09.735Z,0
2018-02-19T00:40:50.262Z,0
2018-02-19T00:41:30.777Z,0
2018-02-19T00:42:11.346Z,0
2018-02-19T00:42:51.865Z,0
2018-02-19T00:43:32.395Z,0
2018-02-19T00:44:12.967Z,0
2018-02-19T00:44:53.507Z,0
2018-02-19T00:45:34.021Z,0
2018-02-19T00:46:15.205Z,0
2018-02-19T00:46:55.077Z,0
2018-02-19T00:47:35.555Z,0
2018-02-19T00:48:16.166Z,0
2018-02-19T00:48:56.682Z,0
2018-02-19T00:49:37.220Z,0
2018-02-19T00:50:17.728Z,0
2018-02-19T00:50:58.256Z,0
2018-02-19T00:51:38.770Z,0
2018-02-19T00:52:19.323Z,0
2018-02-19T00:52:59.845Z,0
2018-02-19T00:53:40.337Z,0
2018-02-19T00:54:20.921Z,0
2018-02-19T00:55:01.402Z,0
2018-02-19T00:55:41.995Z,0
2018-02-19T00:56:22.464Z,0
2018-02-19T00:57:03.011Z,0
2018-02-19T00:57:43.507Z,0
2018-02-19T00:58:24.120Z,0
2018-02-19T00:59:04.682Z,0
2018-02-19T00:59:45.230Z,0
2018-02-19T01:00:25.751Z,0
2018-02-19T01:01:06.305Z,0
2018-02-19T01:01:46.908Z,0
2018-02-19T01:02:27.436Z,0
2018-02-19T01:03:07.997Z,0
2018-02-19T01:03:48.561Z,0
2018-02-19T01:04:29.102Z,0
2018-02-19T01:05:09.630Z,0
2018-02-19T01:05:50.110Z,0
2018-02-19T01:06:30.692Z,0
2018-02-19T01:07:11.230Z,0
2018-02-19T01:07:51.800Z,0
2018-02-19T01:08:32.341Z,0
2018-02-19T01:09:12.832Z,0
2018-02-19T01:09:53.399Z,0
2018-02-19T01:10:34.076Z,0
2018-02-19T01:11:14.618Z,0
2018-02-19T01:11:55.161Z,0
2018-02-19T01:12:35.696Z,0
2018-02-19T01:13:16.318Z,0
2018-02-19T01:13:56.816Z,0
2018-02-19T01:14:37.352Z,0
2018-02-19T01:15:17.918Z,0
2018-02-19T01:15:58.463Z,0
2018-02-19T01:16:39.008Z,0
2018-02-19T01:17:19.607Z,0
2018-02-19T01:18:00.115Z,0
2018-02-19T01:18:40.635Z,0
2018-02-19T01:19:21.260Z,0
2018-02-19T01:20:01.742Z,0
2018-02-19T01:20:42.317Z,0
2018-02-19T01:21:22.905Z,0
2018-02-19T01:22:03.427Z,0
2018-02-19T01:22:44.024Z,0
2018-02-19T01:23:24.530Z,0
2018-02-19T01:24:05.203Z,0
2018-02-19T01:24:45.801Z,0
2018-02-19T01:25:26.286Z,0
2018-02-19T01:26:06.804Z,0
2018-02-19T01:26:47.386Z,0
2018-02-19T01:27:27.891Z,0
2018-02-19T01:28:08.428Z,0
2018-02-19T01:28:48.951Z,0
2018-02-19T01:29:29.502Z,0
2018-02-19T01:30:10.064Z,0
2018-02-19T01:30:50.610Z,0
2018-02-19T01:31:31.174Z,0
2018-02-19T01:32:11.782Z,0
2018-02-19T01:32:52.302Z,0
2018-02-19T01:33:32.823Z,0
2018-02-19T01:34:13.375Z,0
2018-02-19T01:34:53.858Z,0
2018-02-19T01:35:34.400Z,0
2018-02-19T01:36:14.960Z,0
2018-02-19T01:36:55.479Z,0
2018-02-19T01:37:36.017Z,0
2018-02-19T01:38:16.577Z,0
2018-02-19T01:38:57.098Z,0
2018-02-19T01:39:37.646Z,0
2018-02-19T01:40:18.167Z,0
2018-02-19T01:40:58.731Z,0
2018-02-19T01:41:39.280Z,0
2018-02-19T01:42:19.852Z,0
2018-02-19T01:43:00.461Z,0
2018-02-19T01:43:40.975Z,0
2018-02-19T01:44:21.521Z,0
2018-02-19T01:45:02.062Z,0
2018-02-19T01:45:42.570Z,0
2018-02-19T01:46:23.112Z,0
2018-02-19T01:47:03.662Z,0
2018-02-19T01:47:44.195Z,0
2018-02-19T01:48:24.762Z,0
2018-02-19T01:49:05.268Z,0
2018-02-19T01:49:45.772Z,0
2018-02-19T01:50:26.322Z,0
2018-02-19T01:51:06.849Z,0
2018-02-19T01:51:47.441Z,0
2018-02-19T01:52:28.096Z,0
2018-02-19T01:53:08.813Z,0
2018-02-19T01:53:49.361Z,0
2018-02-19T01:54:29.938Z,0
2018-02-19T01:55:10.484Z,0
2018-02-19T01:55:51.032Z,0
2018-02-19T01:56:31.602Z,0
2018-02-19T01:57:12.109Z,0
2018-02-19T01:57:52.618Z,0
2018-02-19T01:58:33.142Z,0
2018-02-19T01:59:13.597Z,0
2018-02-19T01:59:54.596Z,0
2018-02-19T02:00:35.427Z,0
2018-02-19T02:01:16.719Z,0
2018-02-19T02:01:56.531Z,0
2018-02-19T02:02:37.250Z,0
2018-02-19T02:03:17.798Z,0
2018-02-19T02:03:58.640Z,0
2018-02-19T02:04:38.858Z,0
2018-02-19T02:05:19.557Z,0
2018-02-19T02:06:00.078Z,0
2018-02-19T02:06:40.653Z,0
2018-02-19T02:07:21.152Z,0
2018-02-19T02:08:01.785Z,0
2018-02-19T02:08:42.304Z,0
2018-02-19T02:09:22.843Z,0
2018-02-19T02:10:03.367Z,0
2018-02-19T02:10:43.908Z,0
2018-02-19T02:11:24.427Z,0
2018-02-19T02:12:04.971Z,0
2018-02-19T02:12:45.928Z,0
2018-02-19T02:13:26.399Z,0
2018-02-19T02:14:07.132Z,0
2018-02-19T02:14:47.696Z,0
2018-02-19T02:15:28.520Z,0
2018-02-19T02:16:09.051Z,0
2018-02-19T02:16:49.615Z,0
2018-02-19T02:17:30.122Z,0
2018-02-19T02:18:10.769Z,0
2018-02-19T02:18:51.532Z,0
2018-02-19T02:19:32.064Z,0
2018-02-19T02:20:12.660Z,0
2018-02-19T02:20:53.401Z,0
2018-02-19T02:21:33.855Z,0
2018-02-19T02:22:14.488Z,0
2018-02-19T02:22:55.049Z,0
2018-02-19T02:23:35.684Z,0
2018-02-19T02:24:16.850Z,0
2018-02-19T02:24:57.423Z,0
2018-02-19T02:25:38.271Z,0
2018-02-19T02:26:18.811Z,0
2018-02-19T02:26:59.722Z,0
2018-02-19T02:27:39.986Z,0
2018-02-19T02:28:20.530Z,0
2018-02-19T02:29:01.101Z,0
2018-02-19T02:29:41.949Z,0
2018-02-19T02:30:22.407Z,0
2018-02-19T02:31:03.385Z,0
2018-02-19T02:31:43.968Z,0
2018-02-19T02:32:24.561Z,0
2018-02-19T02:33:05.130Z,0
2018-02-19T02:33:45.653Z,0
2018-02-19T02:34:26.157Z,0
2018-02-19T02:35:06.717Z,0
2018-02-19T02:35:47.543Z,0
2018-02-19T02:36:28.097Z,0
2018-02-19T02:37:08.751Z,0
2018-02-19T02:37:49.229Z,0
2018-02-19T02:38:29.949Z,0
2018-02-19T02:39:10.424Z,0
2018-02-19T02:39:51.243Z,0
2018-02-19T02:40:31.779Z,0
2018-02-19T02:41:12.289Z,0
2018-02-19T02:41:52.870Z,0
2018-02-19T02:42:33.451Z,0
2018-02-19T02:43:13.919Z,0
2018-02-19T02:43:54.433Z,0
2018-02-19T02:44:35.031Z,0
2018-02-19T02:45:15.558Z,0
2018-02-19T02:45:56.085Z,0
2018-02-19T02:46:36.574Z,0
2018-02-19T02:47:17.518Z,0
2018-02-19T02:47:58.085Z,0
2018-02-19T02:48:38.599Z,0
2018-02-19T02:49:19.169Z,0
2018-02-19T02:49:59.945Z,0
2018-02-19T02:50:40.302Z,0
2018-02-19T02:51:20.951Z,0
2018-02-19T02:52:01.520Z,0
2018-02-19T02:52:42.279Z,0
2018-02-19T02:53:22.670Z,0
2018-02-19T02:54:03.220Z,0
2018-02-19T02:54:43.774Z,0
2018-02-19T02:55:24.473Z,0
2018-02-19T02:56:05.103Z,0
2018-02-19T02:56:45.663Z,0
2018-02-19T02:57:26.205Z,0
2018-02-19T02:58:06.727Z,0
2018-02-19T02:58:47.634Z,0
2018-02-19T02:59:27.950Z,0
2018-02-19T03:00:08.480Z,0
2018-02-19T03:00:49.035Z,0
2018-02-19T03:01:29.808Z,0
2018-02-19T03:02:10.242Z,0
2018-02-19T03:02:50.764Z,0
2018-02-19T03:03:31.335Z,0
2018-02-19T03:04:12.023Z,0
2018-02-19T03:04:52.576Z,0
2018-02-19T03:05:33.191Z,0
2018-02-19T03:06:13.805Z,0
2018-02-19T03:06:54.312Z,0
2018-02-19T03:07:34.952Z,0
2018-02-19T03:08:15.470Z,0
2018-02-19T03:08:56.007Z,0
2018-02-19T03:09:36.543Z,0
2018-02-19T03:10:17.129Z,0
2018-02-19T03:10:57.686Z,0
2018-02-19T03:11:38.259Z,0
2018-02-19T03:12:18.802Z,0
2018-02-19T03:12:59.356Z,0
2018-02-19T03:13:39.889Z,0
2018-02-19T03:14:21.083Z,0
2018-02-19T03:15:01.581Z,0
2018-02-19T03:15:42.109Z,0
2018-02-19T03:16:22.800Z,0
2018-02-19T03:17:03.420Z,0
2018-02-19T03:17:43.953Z,0
2018-02-19T03:18:24.468Z,0
2018-02-19T03:19:05.105Z,0
2018-02-19T03:19:45.593Z,0
2018-02-19T03:20:26.153Z,0
2018-02-19T03:21:06.707Z,0
2018-02-19T03:21:47.367Z,0
2018-02-19T03:22:27.873Z,0
2018-02-19T03:23:09.024Z,0
2018-02-19T03:23:49.585Z,0
2018-02-19T03:24:30.121Z,0
2018-02-19T03:25:10.735Z,0
2018-02-19T03:25:51.320Z,0
2018-02-19T03:26:31.902Z,0
2018-02-19T03:27:12.436Z,0
2018-02-19T03:27:52.928Z,0
2018-02-19T03:28:33.547Z,0
2018-02-19T03:29:13.989Z,0
2018-02-19T03:29:54.551Z,0
2018-02-19T03:30:35.103Z,0
2018-02-19T03:31:15.625Z,0
2018-02-19T03:31:56.200Z,0
2018-02-19T03:32:36.922Z,0
2018-02-19T03:33:18.899Z,0
2018-02-19T03:33:59.419Z,0
2018-02-19T03:34:40.070Z,0
2018-02-19T03:35:20.551Z,0
2018-02-19T03:36:01.108Z,0
2018-02-19T03:36:41.816Z,0
2018-02-19T03:37:22.582Z,0
2018-02-19T03:38:03.174Z,0
2018-02-19T03:38:43.688Z,0
2018-02-19T03:39:24.251Z,0
2018-02-19T03:40:04.760Z,0
2018-02-19T03:40:45.326Z,0
2018-02-19T03:41:25.948Z,0
2018-02-19T03:42:06.779Z,0
2018-02-19T03:42:47.414Z,0
2018-02-19T03:43:28.072Z,0
2018-02-19T03:44:08.805Z,0
2018-02-19T03:44:49.259Z,0
2018-02-19T03:45:29.804Z,0
2018-02-19T03:46:10.321Z,0
2018-02-19T03:46:51.333Z,0
2018-02-19T03:47:32.434Z,0
2018-02-19T03:48:13.065Z,0
2018-02-19T03:48:53.667Z,0
2018-02-19T03:49:34.206Z,0
2018-02-19T03:50:14.711Z,0
2018-02-19T03:50:55.255Z,0
2018-02-19T03:51:35.896Z,0
2018-02-19T03:52:16.547Z,0
2018-02-19T03:52:57.181Z,0
2018-02-19T03:53:37.840Z,0
2018-02-19T03:54:18.542Z,0
2018-02-19T03:54:59.277Z,0
2018-02-19T03:55:39.823Z,0
2018-02-19T03:56:20.323Z,0
2018-02-19T03:57:01.324Z,0
2018-02-19T03:57:42.064Z,0
2018-02-19T03:58:22.707Z,0
2018-02-19T03:59:03.194Z,0
2018-02-19T03:59:43.722Z,0
2018-02-19T04:00:24.241Z,0
2018-02-19T04:01:04.737Z,0
2018-02-19T04:01:45.266Z,0
2018-02-19T04:02:27.272Z,0
2018-02-19T04:03:07.745Z,0
2018-02-19T04:03:48.327Z,0
2018-02-19T04:04:28.834Z,0
2018-02-19T04:05:09.373Z,0
2018-02-19T04:05:49.894Z,0
2018-02-19T04:06:30.430Z,0
2018-02-19T04:07:11.018Z,0
2018-02-19T04:07:51.524Z,0
2018-02-19T04:08:32.015Z,0
2018-02-19T04:09:12.565Z,0
2018-02-19T04:09:53.143Z,0
2018-02-19T04:10:33.719Z,0
2018-02-19T04:11:14.254Z,0
2018-02-19T04:11:54.806Z,0
2018-02-19T04:12:35.315Z,0
2018-02-19T04:13:15.870Z,0
2018-02-19T04:13:56.412Z,0
2018-02-19T04:14:36.992Z,0
2018-02-19T04:15:17.669Z,0
2018-02-19T04:15:58.201Z,0
2018-02-19T04:16:38.727Z,0
2018-02-19T04:17:19.278Z,0
2018-02-19T04:17:59.844Z,0
2018-02-19T04:18:40.388Z,0
2018-02-19T04:19:20.924Z,0
2018-02-19T04:20:01.466Z,0
2018-02-19T04:20:41.968Z,0
2018-02-19T04:21:22.518Z,0
2018-02-19T04:22:03.053Z,0
2018-02-19T04:22:43.565Z,0
2018-02-19T04:23:24.094Z,0
2018-02-19T04:24:04.627Z,0
2018-02-19T04:24:45.148Z,0
2018-02-19T04:25:25.723Z,0
2018-02-19T04:26:06.226Z,0
2018-02-19T04:26:46.804Z,0
2018-02-19T04:27:27.298Z,0
2018-02-19T04:28:07.803Z,0
2018-02-19T04:28:48.390Z,0
2018-02-19T04:29:28.996Z,0
2018-02-19T04:30:09.560Z,0
2018-02-19T04:30:50.086Z,0
2018-02-19T04:31:30.637Z,0
2018-02-19T04:32:11.234Z,0
2018-02-19T04:32:51.774Z,0
2018-02-19T04:33:32.292Z,0
2018-02-19T04:34:12.874Z,0
2018-02-19T04:34:53.417Z,0
2018-02-19T04:35:33.967Z,0
2018-02-19T04:36:14.481Z,0
2018-02-19T04:36:55.027Z,0
2018-02-19T04:37:35.532Z,0
2018-02-19T04:38:16.078Z,0
2018-02-19T04:38:56.613Z,0
2018-02-19T04:39:37.158Z,0
2018-02-19T04:40:17.692Z,0
2018-02-19T04:40:58.207Z,0
2018-02-19T04:41:38.780Z,0
2018-02-19T04:42:19.278Z,0
2018-02-19T04:42:59.837Z,0
2018-02-19T04:43:40.383Z,0
2018-02-19T04:44:20.909Z,0
2018-02-19T04:45:01.486Z,0
2018-02-19T04:45:42.010Z,0
2018-02-19T04:46:22.492Z,0
2018-02-19T04:47:03.031Z,0
2018-02-19T04:47:43.565Z,0
2018-02-19T04:48:24.096Z,0
2018-02-19T04:49:04.620Z,0
2018-02-19T04:49:45.176Z,0
2018-02-19T04:50:25.717Z,0
2018-02-19T04:51:06.259Z,0
2018-02-19T04:51:46.816Z,0
2018-02-19T04:52:27.346Z,0
2018-02-19T04:53:07.859Z,0
2018-02-19T04:53:48.378Z,0
2018-02-19T04:54:28.917Z,0
2018-02-19T04:55:09.400Z,0
2018-02-19T04:55:49.976Z,0
2018-02-19T04:56:30.461Z,0
2018-02-19T04:57:10.993Z,0
2018-02-19T04:57:51.575Z,0
2018-02-19T04:58:32.114Z,0
2018-02-19T04:59:12.626Z,0
2018-02-19T04:59:53.156Z,0
2018-02-19T05:00:33.683Z,0
2018-02-19T05:01:14.235Z,0
2018-02-19T05:01:54.899Z,0
2018-02-19T05:02:35.432Z,0
2018-02-19T05:03:15.970Z,0
2018-02-19T05:03:56.497Z,0
2018-02-19T05:04:37.062Z,0
2018-02-19T05:05:17.655Z,0
2018-02-19T05:05:58.240Z,0
2018-02-19T05:06:38.731Z,0
2018-02-19T05:07:19.314Z,0
2018-02-19T05:07:59.891Z,0
2018-02-19T05:08:40.372Z,0
2018-02-19T05:09:20.882Z,0
2018-02-19T05:10:02.267Z,0
2018-02-19T05:10:41.962Z,0
2018-02-19T05:11:22.483Z,0
2018-02-19T05:12:03.016Z,0
2018-02-19T05:12:43.564Z,0
2018-02-19T05:13:24.084Z,0
2018-02-19T05:14:04.612Z,0
2018-02-19T05:14:45.144Z,0
2018-02-19T05:15:25.632Z,0
2018-02-19T05:16:06.157Z,0
2018-02-19T05:16:46.691Z,0
2018-02-19T05:17:27.273Z,0
2018-02-19T05:18:07.765Z,0
2018-02-19T05:18:48.313Z,0
2018-02-19T05:19:28.837Z,0
2018-02-19T05:20:09.338Z,0
2018-02-19T05:20:49.871Z,0
2018-02-19T05:21:30.489Z,0
2018-02-19T05:22:10.985Z,0
2018-02-19T05:22:51.549Z,0
2018-02-19T05:23:32.098Z,0
2018-02-19T05:24:12.651Z,0
2018-02-19T05:24:53.188Z,0
2018-02-19T05:25:33.745Z,0
2018-02-19T05:26:14.297Z,0
2018-02-19T05:26:54.874Z,0
2018-02-19T05:27:35.430Z,0
2018-02-19T05:28:16.024Z,0
2018-02-19T05:28:56.588Z,0
2018-02-19T05:29:37.133Z,0
2018-02-19T05:30:17.699Z,0
2018-02-19T05:30:58.268Z,0
2018-02-19T05:31:38.825Z,0
2018-02-19T05:32:19.381Z,0
2018-02-19T05:32:59.931Z,0
2018-02-19T05:33:40.487Z,0
2018-02-19T05:34:21.059Z,0
2018-02-19T05:35:01.588Z,0
2018-02-19T05:35:42.124Z,0
2018-02-19T05:36:22.686Z,0
2018-02-19T05:37:03.250Z,0
2018-02-19T05:37:43.810Z,0
2018-02-19T05:38:24.374Z,0
2018-02-19T05:39:04.959Z,0
2018-02-19T05:39:45.511Z,0
2018-02-19T05:40:26.058Z,0
2018-02-19T05:41:06.610Z,0
2018-02-19T05:41:47.165Z,0
2018-02-19T05:42:27.712Z,0
2018-02-19T05:43:08.277Z,0
2018-02-19T05:43:48.842Z,0
2018-02-19T05:44:30.212Z,0
2018-02-19T05:45:10.820Z,0
2018-02-19T05:45:51.382Z,0
2018-02-19T05:46:31.968Z,0
2018-02-19T05:47:12.501Z,0
2018-02-19T05:47:53.064Z,0
2018-02-19T05:48:33.615Z,0
2018-02-19T05:49:14.167Z,0
2018-02-19T05:49:54.730Z,0
2018-02-19T05:50:35.260Z,0
2018-02-19T05:51:15.817Z,0
2018-02-19T05:51:56.385Z,0
2018-02-19T05:52:36.949Z,0
2018-02-19T05:53:17.510Z,0
2018-02-19T05:53:58.083Z,0
2018-02-19T05:54:38.766Z,0
2018-02-19T05:55:19.340Z,0
2018-02-19T05:55:59.895Z,0
2018-02-19T05:56:40.456Z,0
2018-02-19T05:57:21.060Z,0
2018-02-19T05:58:01.591Z,0
2018-02-19T05:58:42.157Z,0
2018-02-19T05:59:22.712Z,0
2018-02-19T06:00:03.282Z,0
2018-02-19T06:00:43.925Z,0
2018-02-19T06:01:24.459Z,0
2018-02-19T06:02:05.024Z,0
2018-02-19T06:02:45.581Z,0
2018-02-19T06:03:26.155Z,0
2018-02-19T06:04:06.710Z,0
2018-02-19T06:04:47.245Z,0
2018-02-19T06:05:27.797Z,4
2018-02-19T06:06:08.351Z,4
2018-02-19T06:06:48.920Z,4
2018-02-19T06:07:29.466Z,0
2018-02-19T06:08:10.034Z,0
2018-02-19T06:08:50.618Z,0
2018-02-19T06:09:31.222Z,4
2018-02-19T06:10:11.939Z,4
2018-02-19T06:10:52.510Z,0
2018-02-19T06:11:33.222Z,4
2018-02-19T06:12:13.783Z,4
2018-02-19T06:12:54.336Z,4
2018-02-19T06:13:34.899Z,8
2018-02-19T06:14:15.482Z,8
2018-02-19T06:14:56.055Z,4
2018-02-19T06:15:36.597Z,4
2018-02-19T06:16:17.209Z,8
2018-02-19T06:16:57.764Z,8
2018-02-19T06:17:38.321Z,8
2018-02-19T06:18:18.890Z,8
2018-02-19T06:18:59.464Z,8
2018-02-19T06:19:39.997Z,12
2018-02-19T06:20:20.588Z,12
2018-02-19T06:21:01.540Z,12
2018-02-19T06:21:42.109Z,12
2018-02-19T06:22:22.630Z,16
2018-02-19T06:23:03.189Z,20
2018-02-19T06:23:43.738Z,16
2018-02-19T06:24:24.294Z,20
2018-02-19T06:25:04.833Z,20
2018-02-19T06:25:45.386Z,24
2018-02-19T06:26:25.948Z,24
2018-02-19T06:27:06.593Z,24
2018-02-19T06:27:47.188Z,28
2018-02-19T06:28:27.766Z,28
2018-02-19T06:29:08.321Z,28
2018-02-19T06:29:48.960Z,28
2018-02-19T06:30:29.517Z,28
2018-02-19T06:31:10.065Z,32
2018-02-19T06:31:50.593Z,32
2018-02-19T06:32:31.126Z,36
2018-02-19T06:33:11.698Z,36
2018-02-19T06:33:52.260Z,36
2018-02-19T06:34:32.811Z,36
2018-02-19T06:35:13.363Z,40
2018-02-19T06:35:53.919Z,44
2018-02-19T06:36:34.479Z,44
2018-02-19T06:37:15.031Z,48
2018-02-19T06:37:55.588Z,48
2018-02-19T06:38:36.179Z,52
2018-02-19T06:39:16.727Z,52
2018-02-19T06:39:57.296Z,60
2018-02-19T06:40:37.840Z,60
2018-02-19T06:41:18.395Z,64
2018-02-19T06:41:58.959Z,68
2018-02-19T06:42:39.609Z,68
2018-02-19T06:43:20.162Z,76
2018-02-19T06:44:00.704Z,76
2018-02-19T06:44:41.258Z,80
2018-02-19T06:45:21.802Z,84
2018-02-19T06:46:02.419Z,88
2018-02-19T06:46:42.979Z,84
2018-02-19T06:47:23.531Z,88
2018-02-19T06:48:04.084Z,88
2018-02-19T06:48:44.766Z,92
2018-02-19T06:49:25.317Z,96
2018-02-19T06:50:05.876Z,100
2018-02-19T06:50:46.453Z,100
2018-02-19T06:51:27.032Z,108
2018-02-19T06:52:07.550Z,108
2018-02-19T06:52:48.110Z,108
2018-02-19T06:53:28.681Z,112
2018-02-19T06:54:09.218Z,116
2018-02-19T06:54:49.799Z,120
2018-02-19T06:55:30.341Z,128
2018-02-19T06:56:10.897Z,132
2018-02-19T06:56:51.448Z,136
2018-02-19T06:57:32.005Z,144
2018-02-19T06:58:12.560Z,144
2018-02-19T06:58:53.129Z,140
2018-02-19T06:59:33.696Z,136
2018-02-19T07:00:14.312Z,136
2018-02-19T07:00:55.042Z,140
2018-02-19T07:01:35.651Z,144
2018-02-19T07:02:16.208Z,148
2018-02-19T07:02:56.790Z,148
2018-02-19T07:03:37.357Z,156
2018-02-19T07:04:17.920Z,160
2018-02-19T07:04:58.812Z,164
2018-02-19T07:05:39.615Z,168
2018-02-19T07:06:20.158Z,176
2018-02-19T07:07:00.711Z,180
2018-02-19T07:07:41.510Z,172
2018-02-19T07:08:22.080Z,168
2018-02-19T07:09:02.631Z,164
2018-02-19T07:09:43.240Z,164
2018-02-19T07:10:23.755Z,160
2018-02-19T07:11:04.312Z,160
2018-02-19T07:11:44.866Z,164
2018-02-19T07:12:25.498Z,164
2018-02-19T07:13:06.054Z,164
2018-02-19T07:13:46.639Z,168
2018-02-19T07:14:27.193Z,172
2018-02-19T07:15:07.744Z,172
2018-02-19T07:15:48.296Z,176
2018-02-19T07:16:28.862Z,180
2018-02-19T07:17:09.402Z,184
2018-02-19T07:17:49.994Z,188
2018-02-19T07:18:31.467Z,200
2018-02-19T07:19:12.029Z,208
2018-02-19T07:19:52.582Z,224
2018-02-19T07:20:33.117Z,240
2018-02-19T07:21:13.671Z,256
2018-02-19T07:21:54.242Z,272
2018-02-19T07:22:34.995Z,284
2018-02-19T07:23:15.669Z,292
2018-02-19T07:23:56.297Z,308
2018-02-19T07:24:36.850Z,328
2018-02-19T07:25:17.393Z,356
2018-02-19T07:25:57.954Z,380
2018-02-19T07:26:38.534Z,400
2018-02-19T07:27:19.081Z,416
2018-02-19T07:27:59.677Z,432
2018-02-19T07:28:40.255Z,456
2018-02-19T07:29:20.851Z,480
2018-02-19T07:30:01.460Z,500
2018-02-19T07:30:42.021Z,528
2018-02-19T07:31:22.569Z,548
2018-02-19T07:32:03.156Z,572
2018-02-19T07:32:43.734Z,592
2018-02-19T07:33:24.308Z,608
2018-02-19T07:34:05.256Z,612
2018-02-19T07:34:45.797Z,620
2018-02-19T07:35:26.388Z,604
2018-02-19T07:36:06.991Z,604
2018-02-19T07:36:47.622Z,588
2018-02-19T07:37:28.149Z,564
2018-02-19T07:38:08.702Z,548
2018-02-19T07:38:49.253Z,548
2018-02-19T07:39:29.816Z,552
2018-02-19T07:40:10.378Z,564
2018-02-19T07:40:50.963Z,584
2018-02-19T07:41:31.514Z,612
2018-02-19T07:42:12.074Z,636
2018-02-19T07:42:52.913Z,648
2018-02-19T07:43:33.560Z,672
2018-02-19T07:44:14.235Z,692
2018-02-19T07:44:54.764Z,700
2018-02-19T07:45:35.529Z,704
2018-02-19T07:46:16.125Z,708
2018-02-19T07:46:56.705Z,696
2018-02-19T07:47:37.252Z,676
2018-02-19T07:48:17.808Z,676
2018-02-19T07:48:58.369Z,700
2018-02-19T07:49:38.932Z,728
2018-02-19T07:50:19.549Z,756
2018-02-19T07:51:00.049Z,768
2018-02-19T07:51:40.662Z,784
2018-02-19T07:52:21.179Z,796
2018-02-19T07:53:01.721Z,804
2018-02-19T07:53:42.274Z,816
2018-02-19T07:54:22.816Z,828
2018-02-19T07:55:03.299Z,836
2018-02-19T07:55:43.846Z,836
2018-02-19T07:56:24.413Z,840
2018-02-19T07:57:04.995Z,848
2018-02-19T07:57:45.581Z,856
2018-02-19T07:58:26.130Z,868
2018-02-19T07:59:06.874Z,888
2018-02-19T07:59:47.688Z,904
2018-02-19T08:00:28.073Z,892
2018-02-19T08:01:08.600Z,860
2018-02-19T08:01:49.157Z,816
2018-02-19T08:02:29.713Z,780
2018-02-19T08:03:10.289Z,740
2018-02-19T08:03:50.820Z,696
2018-02-19T08:04:31.398Z,652
2018-02-19T08:05:11.980Z,620
2018-02-19T08:05:52.515Z,604
2018-02-19T08:06:33.064Z,600
2018-02-19T08:07:13.585Z,608
2018-02-19T08:07:54.155Z,624
2018-02-19T08:08:34.688Z,648
2018-02-19T08:09:15.489Z,672
2018-02-19T08:09:56.022Z,700
2018-02-19T08:10:36.612Z,744
2018-02-19T08:11:17.170Z,792
2018-02-19T08:11:57.737Z,844
2018-02-19T08:12:38.274Z,892
2018-02-19T08:13:18.856Z,928
2018-02-19T08:13:59.420Z,952
2018-02-19T08:14:39.987Z,960
2018-02-19T08:15:20.520Z,948
2018-02-19T08:16:01.098Z,904
2018-02-19T08:16:41.658Z,844
2018-02-19T08:17:22.219Z,800
2018-02-19T08:18:02.762Z,788
2018-02-19T08:18:43.443Z,808
2018-02-19T08:19:24.015Z,864
2018-02-19T08:20:04.564Z,944
2018-02-19T08:20:45.248Z,1004
2018-02-19T08:21:25.807Z,1020
2018-02-19T08:22:06.441Z,1052
2018-02-19T08:22:47.030Z,1048
2018-02-19T08:23:27.595Z,1028
2018-02-19T08:24:08.155Z,1036
2018-02-19T08:24:48.702Z,1020
2018-02-19T08:25:29.282Z,992
2018-02-19T08:26:09.853Z,964
2018-02-19T08:26:50.455Z,928
2018-02-19T08:27:30.960Z,892
2018-02-19T08:28:11.497Z,888
2018-02-19T08:28:52.141Z,912
2018-02-19T08:29:32.604Z,952
2018-02-19T08:30:13.151Z,984
2018-02-19T08:30:53.757Z,1004
2018-02-19T08:31:34.343Z,1020
2018-02-19T08:32:14.939Z,1016
2018-02-19T08:32:55.486Z,1004
2018-02-19T08:33:36.041Z,976
2018-02-19T08:34:16.615Z,964
2018-02-19T08:34:57.171Z,984
2018-02-19T08:35:37.745Z,1000
2018-02-19T08:36:18.304Z,1016
2018-02-19T08:36:58.876Z,1028
2018-02-19T08:37:39.431Z,1052
2018-02-19T08:38:19.997Z,1060
2018-02-19T08:39:00.614Z,1056
2018-02-19T08:39:41.173Z,1052
2018-02-19T08:40:21.807Z,1012
2018-02-19T08:41:02.480Z,980
2018-02-19T08:41:43.043Z,968
2018-02-19T08:42:23.598Z,956
2018-02-19T08:43:04.129Z,940
2018-02-19T08:43:44.783Z,924
2018-02-19T08:44:25.368Z,908
2018-02-19T08:45:05.924Z,924
2018-02-19T08:45:46.586Z,984
2018-02-19T08:46:27.151Z,1060
2018-02-19T08:47:07.746Z,1124
2018-02-19T08:47:48.320Z,1156
2018-02-19T08:48:28.888Z,1148
2018-02-19T08:49:09.453Z,1148
2018-02-19T08:49:50.040Z,1172
2018-02-19T08:50:30.599Z,1200
2018-02-19T08:51:11.183Z,1216
2018-02-19T08:51:51.762Z,1228
2018-02-19T08:52:32.293Z,1248
2018-02-19T08:53:12.860Z,1268
2018-02-19T08:53:53.434Z,1296
2018-02-19T08:54:33.987Z,1328
2018-02-19T08:55:14.573Z,1356
2018-02-19T08:55:55.132Z,1384
2018-02-19T08:56:35.693Z,1400
2018-02-19T08:57:16.293Z,1408
2018-02-19T08:57:56.872Z,1408
2018-02-19T08:58:37.408Z,1408
2018-02-19T08:59:17.980Z,1420
2018-02-19T08:59:58.558Z,1432
2018-02-19T09:00:39.183Z,1460
2018-02-19T09:01:19.742Z,1492
2018-02-19T09:02:00.377Z,1528
2018-02-19T09:02:40.933Z,1556
2018-02-19T09:03:21.526Z,1576
2018-02-19T09:04:02.074Z,1588
2018-02-19T09:04:42.715Z,1600
2018-02-19T09:05:23.241Z,1608
2018-02-19T09:06:03.826Z,1596
2018-02-19T09:06:44.399Z,1616
2018-02-19T09:07:24.951Z,1628
2018-02-19T09:08:05.550Z,1652
2018-02-19T09:08:46.088Z,1672
2018-02-19T09:09:26.747Z,1700
2018-02-19T09:10:07.299Z,1752
2018-02-19T09:10:47.862Z,1792
2018-02-19T09:11:28.424Z,1856
2018-02-19T09:12:09.210Z,1904
2018-02-19T09:12:49.766Z,1948
2018-02-19T09:13:30.329Z,1972
2018-02-19T09:14:11.115Z,1980
2018-02-19T09:14:51.756Z,1964
2018-02-19T09:15:32.282Z,1916
2018-02-19T09:16:12.843Z,1872
2018-02-19T09:16:53.413Z,1860
2018-02-19T09:17:33.990Z,1884
2018-02-19T09:18:14.600Z,1916
2018-02-19T09:18:55.172Z,1928
2018-02-19T09:19:35.754Z,1896
2018-02-19T09:20:16.347Z,1880
2018-02-19T09:20:56.904Z,1892
2018-02-19T09:21:37.464Z,1888
2018-02-19T09:22:18.041Z,1864
2018-02-19T09:22:58.623Z,1800
2018-02-19T09:23:39.213Z,1708
2018-02-19T09:24:19.740Z,1604
2018-02-19T09:25:00.376Z,1488
2018-02-19T09:25:41.040Z,1392
2018-02-19T09:26:21.608Z,1352
2018-02-19T09:27:02.181Z,1328
2018-02-19T09:27:42.738Z,1308
2018-02-19T09:28:23.327Z,1304
2018-02-19T09:29:03.879Z,1312
2018-02-19T09:29:44.457Z,1332
2018-02-19T09:30:24.999Z,1356
2018-02-19T09:31:05.691Z,1400
2018-02-19T09:31:46.298Z,1448
2018-02-19T09:32:26.938Z,1504
2018-02-19T09:33:07.455Z,1592
2018-02-19T09:33:48.007Z,1660
2018-02-19T09:34:28.551Z,1700
2018-02-19T09:35:09.257Z,1704
2018-02-19T09:35:49.845Z,1728
2018-02-19T09:36:30.305Z,1740
2018-02-19T09:37:10.897Z,1764
2018-02-19T09:37:51.481Z,1788
2018-02-19T09:38:31.937Z,1812
2018-02-19T09:39:12.470Z,1836
2018-02-19T09:39:52.960Z,1856
2018-02-19T09:40:33.530Z,1876
2018-02-19T09:41:14.059Z,1892
2018-02-19T09:41:54.652Z,1896
2018-02-19T09:42:35.189Z,1896
2018-02-19T09:43:16.054Z,1892